sensor_id;sensor_type;location;lat;lon;timestamp;pressure;altitude;pressure_sealevel;temperature;humidity
57827;BME280;43656;57.746;11.780;2023-07-09T00:02:16;102132.53;;;16.51;99.09
57827;BME280;43656;57.746;11.780;2023-07-09T00:04:42;102128.59;;;16.54;98.71
57827;BME280;43656;57.746;11.780;2023-07-09T00:07:15;102133.38;;;16.52;98.97
57827;BME280;43656;57.746;11.780;2023-07-09T00:09:42;102132.34;;;16.53;99.09
57827;BME280;43656;57.746;11.780;2023-07-09T00:12:14;102141.94;;;16.49;99.29
57827;BME280;43656;57.746;11.780;2023-07-09T00:14:39;102118.75;;;16.39;99.11
57827;BME280;43656;57.746;11.780;2023-07-09T00:17:20;102137.13;;;16.44;99.29
57827;BME280;43656;57.746;11.780;2023-07-09T00:19:46;102115.78;;;16.28;99.35
57827;BME280;43656;57.746;11.780;2023-07-09T00:22:16;102132.31;;;16.39;99.32
57827;BME280;43656;57.746;11.780;2023-07-09T00:24:47;102130.63;;;16.32;99.63
57827;BME280;43656;57.746;11.780;2023-07-09T00:27:15;102125.56;;;16.22;99.88
57827;BME280;43656;57.746;11.780;2023-07-09T00:29:42;102119.94;;;16.24;99.68
57827;BME280;43656;57.746;11.780;2023-07-09T00:32:11;102132.06;;;16.28;99.88
57827;BME280;43656;57.746;11.780;2023-07-09T00:34:37;102133.09;;;16.20;99.62
57827;BME280;43656;57.746;11.780;2023-07-09T00:37:09;102123.25;;;16.19;99.87
57827;BME280;43656;57.746;11.780;2023-07-09T00:39:35;102122.22;;;16.13;99.92
57827;BME280;43656;57.746;11.780;2023-07-09T00:42:00;102127.41;;;16.08;99.64
57827;BME280;43656;57.746;11.780;2023-07-09T00:44:31;102122.38;;;16.05;99.58
57827;BME280;43656;57.746;11.780;2023-07-09T00:49:34;102125.88;;;15.92;100.00
57827;BME280;43656;57.746;11.780;2023-07-09T00:52:09;102138.66;;;15.98;99.98
57827;BME280;43656;57.746;11.780;2023-07-09T00:54:44;102120.66;;;15.91;100.00
57827;BME280;43656;57.746;11.780;2023-07-09T00:57:17;102135.09;;;15.98;99.93
57827;BME280;43656;57.746;11.780;2023-07-09T00:59:55;102131.56;;;15.97;99.90
57827;BME280;43656;57.746;11.780;2023-07-09T01:02:22;102140.31;;;15.93;100.00
57827;BME280;43656;57.746;11.780;2023-07-09T01:04:56;102135.47;;;15.88;100.00
57827;BME280;43656;57.746;11.780;2023-07-09T01:07:26;102129.84;;;15.90;100.00
57827;BME280;43656;57.746;11.780;2023-07-09T01:09:52;102129.47;;;15.93;100.00
57827;BME280;43656;57.746;11.780;2023-07-09T01:12:20;102129.47;;;15.93;100.00
57827;BME280;43656;57.746;11.780;2023-07-09T01:14:48;102126.31;;;15.89;100.00
57827;BME280;43656;57.746;11.780;2023-07-09T01:17:17;102101.56;;;15.71;100.00
57827;BME280;43656;57.746;11.780;2023-07-09T01:19:43;102128.81;;;15.91;100.00
57827;BME280;43656;57.746;11.780;2023-07-09T01:22:14;102111.66;;;15.84;100.00
57827;BME280;43656;57.746;11.780;2023-07-09T01:27:12;102106.38;;;15.76;100.00
57827;BME280;43656;57.746;11.780;2023-07-09T01:29:39;102111.63;;;15.77;100.00
57827;BME280;43656;57.746;11.780;2023-07-09T01:32:05;102131.91;;;15.81;100.00
57827;BME280;43656;57.746;11.780;2023-07-09T01:34:32;102123.53;;;15.76;100.00
57827;BME280;43656;57.746;11.780;2023-07-09T01:36:57;102129.53;;;15.71;100.00
57827;BME280;43656;57.746;11.780;2023-07-09T01:39:25;102127.06;;;15.70;100.00
57827;BME280;43656;57.746;11.780;2023-07-09T01:41:51;102127.59;;;15.65;100.00
57827;BME280;43656;57.746;11.780;2023-07-09T01:44:17;102132.19;;;15.65;100.00
57827;BME280;43656;57.746;11.780;2023-07-09T01:46:42;102131.00;;;15.67;100.00
57827;BME280;43656;57.746;11.780;2023-07-09T01:49:11;102135.38;;;15.68;100.00
57827;BME280;43656;57.746;11.780;2023-07-09T01:51:37;102133.84;;;15.66;99.74
57827;BME280;43656;57.746;11.780;2023-07-09T01:54:04;102139.91;;;15.61;100.00
57827;BME280;43656;57.746;11.780;2023-07-09T01:56:29;102139.47;;;15.58;99.53
57827;BME280;43656;57.746;11.780;2023-07-09T01:58:55;102144.22;;;15.56;99.55
57827;BME280;43656;57.746;11.780;2023-07-09T02:01:26;102135.88;;;15.50;99.98
57827;BME280;43656;57.746;11.780;2023-07-09T02:03:53;102138.78;;;15.49;99.72
57827;BME280;43656;57.746;11.780;2023-07-09T02:06:18;102125.56;;;15.39;99.66
57827;BME280;43656;57.746;11.780;2023-07-09T02:08:45;102153.38;;;15.48;99.71
57827;BME280;43656;57.746;11.780;2023-07-09T02:11:11;102155.44;;;15.46;99.10
57827;BME280;43656;57.746;11.780;2023-07-09T02:13:36;102145.59;;;15.38;99.85
57827;BME280;43656;57.746;11.780;2023-07-09T02:16:01;102153.34;;;15.41;99.30
57827;BME280;43656;57.746;11.780;2023-07-09T02:18:28;102142.28;;;15.43;99.71
57827;BME280;43656;57.746;11.780;2023-07-09T02:20:54;102124.53;;;15.40;99.31
57827;BME280;43656;57.746;11.780;2023-07-09T02:23:19;102141.25;;;15.44;99.35
57827;BME280;43656;57.746;11.780;2023-07-09T02:25:45;102139.38;;;15.44;99.41
57827;BME280;43656;57.746;11.780;2023-07-09T02:28:10;102153.34;;;15.41;99.29
57827;BME280;43656;57.746;11.780;2023-07-09T02:30:35;102151.66;;;15.40;99.20
57827;BME280;43656;57.746;11.780;2023-07-09T02:33:01;102142.66;;;15.33;99.58
57827;BME280;43656;57.746;11.780;2023-07-09T02:35:27;102136.19;;;15.34;99.57
57827;BME280;43656;57.746;11.780;2023-07-09T02:37:52;102140.81;;;15.40;98.95
57827;BME280;43656;57.746;11.780;2023-07-09T02:40:18;102132.25;;;15.37;99.07
57827;BME280;43656;57.746;11.780;2023-07-09T02:42:43;102141.25;;;15.44;98.99
57827;BME280;43656;57.746;11.780;2023-07-09T02:45:09;102143.13;;;15.43;98.72
57827;BME280;43656;57.746;11.780;2023-07-09T02:47:35;102142.53;;;15.48;98.40
57827;BME280;43656;57.746;11.780;2023-07-09T02:50:00;102141.44;;;15.70;97.92
57827;BME280;43656;57.746;11.780;2023-07-09T02:52:26;102123.22;;;16.06;95.20
57827;BME280;43656;57.746;11.780;2023-07-09T02:54:52;102145.94;;;16.53;93.51
57827;BME280;43656;57.746;11.780;2023-07-09T02:57:17;102135.09;;;16.73;92.09
57827;BME280;43656;57.746;11.780;2023-07-09T02:59:43;102147.28;;;17.03;90.42
57827;BME280;43656;57.746;11.780;2023-07-09T03:02:08;102148.31;;;17.35;89.03
57827;BME280;43656;57.746;11.780;2023-07-09T03:04:34;102145.31;;;17.64;87.58
57827;BME280;43656;57.746;11.780;2023-07-09T03:06:59;102150.91;;;17.95;85.95
57827;BME280;43656;57.746;11.780;2023-07-09T03:09:26;102145.66;;;18.39;84.87
57827;BME280;43656;57.746;11.780;2023-07-09T03:11:52;102132.63;;;18.41;84.45
57827;BME280;43656;57.746;11.780;2023-07-09T03:14:17;102147.59;;;18.63;84.18
57827;BME280;43656;57.746;11.780;2023-07-09T03:16:43;102149.00;;;19.04;82.64
57827;BME280;43656;57.746;11.780;2023-07-09T03:19:10;102153.00;;;19.27;80.89
57827;BME280;43656;57.746;11.780;2023-07-09T03:21:35;102152.06;;;19.58;79.44
57827;BME280;43656;57.746;11.780;2023-07-09T03:24:01;102154.59;;;19.96;77.65
57827;BME280;43656;57.746;11.780;2023-07-09T03:26:26;102155.56;;;20.02;76.70
57827;BME280;43656;57.746;11.780;2023-07-09T03:28:53;102152.72;;;19.78;77.31
57827;BME280;43656;57.746;11.780;2023-07-09T03:31:18;102140.59;;;19.31;79.37
57827;BME280;43656;57.746;11.780;2023-07-09T03:33:47;102152.50;;;19.55;79.57
57827;BME280;43656;57.746;11.780;2023-07-09T03:36:13;102150.97;;;19.65;78.51
57827;BME280;43656;57.746;11.780;2023-07-09T03:38:39;102140.09;;;19.15;79.91
57827;BME280;43656;57.746;11.780;2023-07-09T03:41:04;102151.94;;;19.02;81.30
57827;BME280;43656;57.746;11.780;2023-07-09T03:43:30;102142.81;;;18.90;81.55
57827;BME280;43656;57.746;11.780;2023-07-09T03:45:55;102148.59;;;19.00;81.26
57827;BME280;43656;57.746;11.780;2023-07-09T03:48:21;102156.34;;;19.04;80.99
57827;BME280;43656;57.746;11.780;2023-07-09T03:50:47;102135.31;;;18.86;80.93
57827;BME280;43656;57.746;11.780;2023-07-09T03:53:13;102154.06;;;19.00;80.51
57827;BME280;43656;57.746;11.780;2023-07-09T03:55:39;102141.97;;;18.90;80.97
57827;BME280;43656;57.746;11.780;2023-07-09T03:58:05;102153.72;;;18.90;81.27
57827;BME280;43656;57.746;11.780;2023-07-09T04:00:31;102160.13;;;18.77;82.06
57827;BME280;43656;57.746;11.780;2023-07-09T04:02:57;102154.16;;;18.87;81.87
57827;BME280;43656;57.746;11.780;2023-07-09T04:05:23;102167.94;;;18.99;81.20
57827;BME280;43656;57.746;11.780;2023-07-09T04:07:49;102166.53;;;19.15;80.11
57827;BME280;43656;57.746;11.780;2023-07-09T04:10:15;102161.63;;;19.23;79.53
57827;BME280;43656;57.746;11.780;2023-07-09T04:12:41;102165.84;;;19.44;78.52
57827;BME280;43656;57.746;11.780;2023-07-09T04:15:07;102160.03;;;19.59;77.64
57827;BME280;43656;57.746;11.780;2023-07-09T04:17:33;102169.47;;;19.82;77.12
57827;BME280;43656;57.746;11.780;2023-07-09T04:19:58;102160.75;;;20.10;75.93
57827;BME280;43656;57.746;11.780;2023-07-09T04:22:24;102157.59;;;20.06;76.06
57827;BME280;43656;57.746;11.780;2023-07-09T04:24:50;102135.66;;;20.13;75.72
57827;BME280;43656;57.746;11.780;2023-07-09T04:27:17;102154.94;;;20.36;75.26
57827;BME280;43656;57.746;11.780;2023-07-09T04:29:43;102161.19;;;20.55;74.94
57827;BME280;43656;57.746;11.780;2023-07-09T04:32:12;102151.31;;;20.96;73.70
57827;BME280;43656;57.746;11.780;2023-07-09T04:34:38;102155.75;;;21.44;71.36
57827;BME280;43656;57.746;11.780;2023-07-09T04:37:08;102157.38;;;21.92;69.50
57827;BME280;43656;57.746;11.780;2023-07-09T04:39:34;102155.06;;;22.41;67.66
57827;BME280;43656;57.746;11.780;2023-07-09T04:42:00;102155.13;;;22.75;66.38
57827;BME280;43656;57.746;11.780;2023-07-09T04:44:26;102158.00;;;23.14;65.23
57827;BME280;43656;57.746;11.780;2023-07-09T04:46:51;102143.88;;;23.44;64.48
57827;BME280;43656;57.746;11.780;2023-07-09T04:49:17;102155.66;;;23.78;63.64
57827;BME280;43656;57.746;11.780;2023-07-09T04:51:42;102135.53;;;23.56;64.42
57827;BME280;43656;57.746;11.780;2023-07-09T04:54:07;102154.84;;;23.61;65.41
57827;BME280;43656;57.746;11.780;2023-07-09T04:56:33;102154.38;;;23.86;64.97
57827;BME280;43656;57.746;11.780;2023-07-09T04:58:58;102154.22;;;24.42;63.75
57827;BME280;43656;57.746;11.780;2023-07-09T05:01:24;102152.59;;;24.73;62.41
57827;BME280;43656;57.746;11.780;2023-07-09T05:03:49;102159.25;;;24.77;62.75
57827;BME280;43656;57.746;11.780;2023-07-09T05:06:15;102132.03;;;24.80;62.71
57827;BME280;43656;57.746;11.780;2023-07-09T05:08:41;102137.19;;;25.09;62.11
57827;BME280;43656;57.746;11.780;2023-07-09T05:11:08;102161.44;;;25.49;60.64
57827;BME280;43656;57.746;11.780;2023-07-09T05:13:36;102159.91;;;25.69;59.46
57827;BME280;43656;57.746;11.780;2023-07-09T05:16:01;102165.34;;;25.53;60.29
57827;BME280;43656;57.746;11.780;2023-07-09T05:18:27;102164.44;;;25.43;60.82
57827;BME280;43656;57.746;11.780;2023-07-09T05:20:52;102165.06;;;25.55;59.59
57827;BME280;43656;57.746;11.780;2023-07-09T05:23:18;102155.69;;;25.56;59.14
57827;BME280;43656;57.746;11.780;2023-07-09T05:25:44;102163.50;;;25.69;59.14
57827;BME280;43656;57.746;11.780;2023-07-09T05:28:09;102167.00;;;25.54;58.12
57827;BME280;43656;57.746;11.780;2023-07-09T05:30:34;102160.72;;;25.64;55.85
57827;BME280;43656;57.746;11.780;2023-07-09T05:33:00;102158.47;;;25.56;55.19
57827;BME280;43656;57.746;11.780;2023-07-09T05:35:26;102156.50;;;25.46;54.58
57827;BME280;43656;57.746;11.780;2023-07-09T05:37:55;102151.13;;;25.29;54.13
57827;BME280;43656;57.746;11.780;2023-07-09T05:40:21;102167.78;;;25.45;54.70
57827;BME280;43656;57.746;11.780;2023-07-09T05:42:48;102171.50;;;25.76;54.55
57827;BME280;43656;57.746;11.780;2023-07-09T05:45:14;102161.34;;;25.76;54.00
57827;BME280;43656;57.746;11.780;2023-07-09T05:47:40;102159.03;;;25.58;53.88
57827;BME280;43656;57.746;11.780;2023-07-09T05:50:06;102156.84;;;25.65;54.22
57827;BME280;43656;57.746;11.780;2023-07-09T05:52:31;102158.84;;;25.75;54.24
57827;BME280;43656;57.746;11.780;2023-07-09T05:54:57;102156.03;;;25.60;54.35
57827;BME280;43656;57.746;11.780;2023-07-09T05:57:22;102156.50;;;25.51;54.83
57827;BME280;43656;57.746;11.780;2023-07-09T05:59:48;102149.41;;;25.61;55.29
57827;BME280;43656;57.746;11.780;2023-07-09T06:02:16;102150.84;;;25.73;55.48
57827;BME280;43656;57.746;11.780;2023-07-09T06:04:42;102154.75;;;25.83;55.47
57827;BME280;43656;57.746;11.780;2023-07-09T06:07:09;102155.53;;;25.73;54.58
57827;BME280;43656;57.746;11.780;2023-07-09T06:09:35;102153.03;;;25.71;55.04
57827;BME280;43656;57.746;11.780;2023-07-09T06:12:02;102158.06;;;25.80;55.19
57827;BME280;43656;57.746;11.780;2023-07-09T06:14:28;102158.53;;;25.71;55.01
57827;BME280;43656;57.746;11.780;2023-07-09T06:16:54;102150.13;;;25.41;54.89
57827;BME280;43656;57.746;11.780;2023-07-09T06:19:19;102150.00;;;25.20;54.71
57827;BME280;43656;57.746;11.780;2023-07-09T06:21:45;102150.88;;;24.99;54.75
57827;BME280;43656;57.746;11.780;2023-07-09T06:24:10;102151.09;;;24.87;54.81
57827;BME280;43656;57.746;11.780;2023-07-09T06:26:36;102153.41;;;25.00;54.24
57827;BME280;43656;57.746;11.780;2023-07-09T06:29:02;102151.47;;;25.01;53.81
57827;BME280;43656;57.746;11.780;2023-07-09T06:31:27;102145.72;;;24.70;54.23
57827;BME280;43656;57.746;11.780;2023-07-09T06:33:53;102146.75;;;24.64;56.03
57827;BME280;43656;57.746;11.780;2023-07-09T06:36:19;102149.75;;;24.63;55.90
57827;BME280;43656;57.746;11.780;2023-07-09T06:38:45;102147.56;;;24.65;55.32
57827;BME280;43656;57.746;11.780;2023-07-09T06:41:12;102147.47;;;24.54;55.96
57827;BME280;43656;57.746;11.780;2023-07-09T06:43:37;102147.88;;;24.68;56.12
57827;BME280;43656;57.746;11.780;2023-07-09T06:46:05;102160.38;;;24.81;55.94
57827;BME280;43656;57.746;11.780;2023-07-09T06:48:31;102158.63;;;24.70;55.18
57827;BME280;43656;57.746;11.780;2023-07-09T06:50:57;102155.72;;;24.81;55.53
57827;BME280;43656;57.746;11.780;2023-07-09T06:53:25;102150.22;;;24.54;55.65
57827;BME280;43656;57.746;11.780;2023-07-09T06:55:50;102156.72;;;24.43;56.76
57827;BME280;43656;57.746;11.780;2023-07-09T06:58:18;102154.91;;;24.32;57.75
57827;BME280;43656;57.746;11.780;2023-07-09T07:00:45;102158.56;;;24.37;57.69
57827;BME280;43656;57.746;11.780;2023-07-09T07:03:11;102161.25;;;24.32;57.65
57827;BME280;43656;57.746;11.780;2023-07-09T07:05:36;102161.25;;;24.32;58.53
57827;BME280;43656;57.746;11.780;2023-07-09T07:08:03;102171.13;;;24.28;58.68
57827;BME280;43656;57.746;11.780;2023-07-09T07:10:29;102165.88;;;24.05;58.39
57827;BME280;43656;57.746;11.780;2023-07-09T07:12:55;102163.44;;;23.86;57.74
57827;BME280;43656;57.746;11.780;2023-07-09T07:15:21;102163.03;;;23.95;57.24
57827;BME280;43656;57.746;11.780;2023-07-09T07:17:47;102172.66;;;23.97;56.33
57827;BME280;43656;57.746;11.780;2023-07-09T07:20:14;102163.84;;;23.95;55.35
57827;BME280;43656;57.746;11.780;2023-07-09T07:22:40;102163.13;;;23.83;55.29
57827;BME280;43656;57.746;11.780;2023-07-09T07:25:06;102166.34;;;23.75;55.68
57827;BME280;43656;57.746;11.780;2023-07-09T07:27:33;102164.81;;;23.67;55.39
57827;BME280;43656;57.746;11.780;2023-07-09T07:29:59;102146.38;;;23.45;57.33
57827;BME280;43656;57.746;11.780;2023-07-09T07:32:24;102160.69;;;23.48;58.24
57827;BME280;43656;57.746;11.780;2023-07-09T07:34:50;102160.63;;;23.42;58.33
57827;BME280;43656;57.746;11.780;2023-07-09T07:37:18;102168.50;;;23.56;58.27
57827;BME280;43656;57.746;11.780;2023-07-09T07:39:46;102169.00;;;23.53;58.15
57827;BME280;43656;57.746;11.780;2023-07-09T07:42:11;102169.59;;;23.55;57.95
57827;BME280;43656;57.746;11.780;2023-07-09T07:44:37;102166.03;;;23.54;58.26
57827;BME280;43656;57.746;11.780;2023-07-09T07:47:02;102165.00;;;23.60;57.95
57827;BME280;43656;57.746;11.780;2023-07-09T07:49:28;102158.44;;;23.61;58.04
57827;BME280;43656;57.746;11.780;2023-07-09T07:51:53;102161.50;;;23.65;58.62
57827;BME280;43656;57.746;11.780;2023-07-09T07:54:19;102155.53;;;23.68;58.34
57827;BME280;43656;57.746;11.780;2023-07-09T07:56:44;102166.00;;;23.71;58.41
57827;BME280;43656;57.746;11.780;2023-07-09T07:59:10;102153.81;;;23.67;58.73
57827;BME280;43656;57.746;11.780;2023-07-09T08:01:35;102154.50;;;23.57;60.06
57827;BME280;43656;57.746;11.780;2023-07-09T08:04:02;102105.50;;;23.10;57.24
57827;BME280;43656;57.746;11.780;2023-07-09T08:06:27;102153.41;;;23.19;56.08
57827;BME280;43656;57.746;11.780;2023-07-09T08:08:53;102151.91;;;23.29;57.61
57827;BME280;43656;57.746;11.780;2023-07-09T08:11:18;102155.91;;;23.21;58.26
57827;BME280;43656;57.746;11.780;2023-07-09T08:13:44;102153.91;;;23.33;57.65
57827;BME280;43656;57.746;11.780;2023-07-09T08:16:09;102155.00;;;23.32;58.61
57827;BME280;43656;57.746;11.780;2023-07-09T08:18:37;102150.16;;;23.23;59.35
57827;BME280;43656;57.746;11.780;2023-07-09T08:21:02;102156.50;;;23.23;60.61
57827;BME280;43656;57.746;11.780;2023-07-09T08:23:28;102144.75;;;23.11;59.05
57827;BME280;43656;57.746;11.780;2023-07-09T08:25:58;102157.41;;;23.12;58.01
57827;BME280;43656;57.746;11.780;2023-07-09T08:28:24;102160.72;;;23.14;58.08
57827;BME280;43656;57.746;11.780;2023-07-09T08:30:53;102155.34;;;23.19;59.00
57827;BME280;43656;57.746;11.780;2023-07-09T08:33:19;102156.34;;;23.13;60.00
57827;BME280;43656;57.746;11.780;2023-07-09T08:35:45;102160.91;;;23.07;60.57
57827;BME280;43656;57.746;11.780;2023-07-09T08:38:10;102144.25;;;23.14;60.65
57827;BME280;43656;57.746;11.780;2023-07-09T08:40:40;102152.44;;;23.09;59.36
57827;BME280;43656;57.746;11.780;2023-07-09T08:46:14;102157.56;;;23.22;60.95
57827;BME280;43656;57.746;11.780;2023-07-09T08:48:45;102156.25;;;23.25;61.67
57827;BME280;43656;57.746;11.780;2023-07-09T08:51:18;102148.06;;;23.30;60.07
57827;BME280;43656;57.746;11.780;2023-07-09T08:53:56;102153.34;;;23.31;59.68
57827;BME280;43656;57.746;11.780;2023-07-09T08:56:24;102155.72;;;23.44;58.46
57827;BME280;43656;57.746;11.780;2023-07-09T08:58:50;102149.19;;;23.51;55.98
57827;BME280;43656;57.746;11.780;2023-07-09T09:01:19;102152.44;;;23.64;55.36
57827;BME280;43656;57.746;11.780;2023-07-09T09:03:54;102156.09;;;23.70;55.16
57827;BME280;43656;57.746;11.780;2023-07-09T09:06:29;102163.00;;;23.73;54.60
57827;BME280;43656;57.746;11.780;2023-07-09T09:09:12;102153.34;;;23.70;54.67
57827;BME280;43656;57.746;11.780;2023-07-09T09:12:25;102162.31;;;23.82;54.63
57827;BME280;43656;57.746;11.780;2023-07-09T09:14:59;102154.25;;;23.76;58.83
57827;BME280;43656;57.746;11.780;2023-07-09T09:17:26;102164.91;;;23.72;57.43
57827;BME280;43656;57.746;11.780;2023-07-09T09:19:58;102160.56;;;23.76;58.75
57827;BME280;43656;57.746;11.780;2023-07-09T09:22:48;102159.81;;;23.81;59.46
57827;BME280;43656;57.746;11.780;2023-07-09T09:27:40;102152.97;;;23.83;62.51
57827;BME280;43656;57.746;11.780;2023-07-09T09:30:25;102163.56;;;23.97;62.71
57827;BME280;43656;57.746;11.780;2023-07-09T09:32:59;102153.88;;;23.89;64.41
57827;BME280;43656;57.746;11.780;2023-07-09T09:35:33;102153.28;;;23.87;65.68
57827;BME280;43656;57.746;11.780;2023-07-09T09:37:59;102167.28;;;23.85;66.71
57827;BME280;43656;57.746;11.780;2023-07-09T09:40:27;102171.38;;;23.83;66.58
57827;BME280;43656;57.746;11.780;2023-07-09T09:42:58;102173.63;;;23.86;66.87
57827;BME280;43656;57.746;11.780;2023-07-09T09:45:37;102172.13;;;24.00;67.79
57827;BME280;43656;57.746;11.780;2023-07-09T09:48:18;102171.63;;;24.03;68.86
57827;BME280;43656;57.746;11.780;2023-07-09T09:50:45;102170.50;;;23.99;69.33
57827;BME280;43656;57.746;11.780;2023-07-09T09:53:18;102166.09;;;23.98;70.32
57827;BME280;43656;57.746;11.780;2023-07-09T09:55:45;102167.63;;;23.89;70.60
57827;BME280;43656;57.746;11.780;2023-07-09T09:58:14;102171.91;;;24.02;70.56
57827;BME280;43656;57.746;11.780;2023-07-09T10:00:46;102170.78;;;24.25;66.49
57827;BME280;43656;57.746;11.780;2023-07-09T10:03:13;102176.63;;;24.50;62.22
57827;BME280;43656;57.746;11.780;2023-07-09T10:05:48;102175.03;;;24.59;63.99
57827;BME280;43656;57.746;11.780;2023-07-09T10:10:46;102180.25;;;24.34;68.43
57827;BME280;43656;57.746;11.780;2023-07-09T10:13:28;102173.91;;;24.33;68.16
57827;BME280;43656;57.746;11.780;2023-07-09T10:16:13;102165.50;;;24.18;66.44
57827;BME280;43656;57.746;11.780;2023-07-09T10:18:53;102156.16;;;24.19;65.91
57827;BME280;43656;57.746;11.780;2023-07-09T10:27:16;102170.63;;;24.36;64.91
57827;BME280;43656;57.746;11.780;2023-07-09T10:32:28;102161.44;;;24.26;66.29
57827;BME280;43656;57.746;11.780;2023-07-09T10:35:15;102175.28;;;23.87;73.60
57827;BME280;43656;57.746;11.780;2023-07-09T10:40:33;102174.22;;;23.32;77.46
57827;BME280;43656;57.746;11.780;2023-07-09T10:43:03;102179.56;;;23.22;78.57
57827;BME280;43656;57.746;11.780;2023-07-09T10:45:34;102178.03;;;23.14;79.17
57827;BME280;43656;57.746;11.780;2023-07-09T10:48:09;102174.97;;;23.11;78.36
57827;BME280;43656;57.746;11.780;2023-07-09T10:50:41;102153.25;;;23.09;76.00
57827;BME280;43656;57.746;11.780;2023-07-09T10:53:13;102159.66;;;23.15;72.25
57827;BME280;43656;57.746;11.780;2023-07-09T10:56:01;102161.81;;;23.30;73.80
57827;BME280;43656;57.746;11.780;2023-07-09T11:01:00;102156.94;;;22.98;77.42
57827;BME280;43656;57.746;11.780;2023-07-09T11:03:50;102165.88;;;23.10;78.80
57827;BME280;43656;57.746;11.780;2023-07-09T11:06:41;102165.72;;;23.00;79.68
57827;BME280;43656;57.746;11.780;2023-07-09T11:09:27;102142.75;;;22.89;80.40
57827;BME280;43656;57.746;11.780;2023-07-09T11:11:56;102139.06;;;22.84;78.95
57827;BME280;43656;57.746;11.780;2023-07-09T11:16:53;102163.41;;;23.09;73.51
57827;BME280;43656;57.746;11.780;2023-07-09T11:19:21;102139.59;;;22.97;74.40
57827;BME280;43656;57.746;11.780;2023-07-09T11:22:06;102147.75;;;23.09;75.24
57827;BME280;43656;57.746;11.780;2023-07-09T11:25:03;102140.34;;;23.10;75.06
57827;BME280;43656;57.746;11.780;2023-07-09T11:27:31;102145.50;;;23.23;75.77
57827;BME280;43656;57.746;11.780;2023-07-09T11:30:02;102144.38;;;23.58;76.73
57827;BME280;43656;57.746;11.780;2023-07-09T11:32:28;102144.28;;;23.91;76.71
57827;BME280;43656;57.746;11.780;2023-07-09T11:35:06;102147.09;;;23.97;78.13
57827;BME280;43656;57.746;11.780;2023-07-09T11:37:31;102139.22;;;24.05;77.48
57827;BME280;43656;57.746;11.780;2023-07-09T11:40:06;102137.88;;;23.86;75.81
57827;BME280;43656;57.746;11.780;2023-07-09T11:45:19;102139.28;;;23.50;75.84
57827;BME280;43656;57.746;11.780;2023-07-09T11:48:17;102116.78;;;23.31;73.67
57827;BME280;43656;57.746;11.780;2023-07-09T11:50:41;102125.13;;;23.58;74.09
57827;BME280;43656;57.746;11.780;2023-07-09T11:55:55;102133.09;;;23.76;72.50
57827;BME280;43656;57.746;11.780;2023-07-09T11:58:20;102129.19;;;23.72;71.16
57827;BME280;43656;57.746;11.780;2023-07-09T12:00:51;102134.22;;;23.58;70.78
57827;BME280;43656;57.746;11.780;2023-07-09T12:03:19;102123.59;;;23.45;70.58
57827;BME280;43656;57.746;11.780;2023-07-09T12:08:44;102131.28;;;23.65;65.91
57827;BME280;43656;57.746;11.780;2023-07-09T12:11:24;102132.19;;;23.71;67.20
57827;BME280;43656;57.746;11.780;2023-07-09T12:13:50;102130.47;;;23.86;67.49
57827;BME280;43656;57.746;11.780;2023-07-09T12:16:25;102129.00;;;23.79;61.87
57827;BME280;43656;57.746;11.780;2023-07-09T12:18:51;102122.88;;;23.72;59.00
57827;BME280;43656;57.746;11.780;2023-07-09T12:21:18;102102.47;;;23.51;53.88
57827;BME280;43656;57.746;11.780;2023-07-09T12:23:43;102118.72;;;23.69;54.05
57827;BME280;43656;57.746;11.780;2023-07-09T12:26:16;102112.38;;;23.68;54.14
57827;BME280;43656;57.746;11.780;2023-07-09T12:28:41;102118.06;;;23.84;55.88
57827;BME280;43656;57.746;11.780;2023-07-09T12:31:14;102101.44;;;23.96;53.91
57827;BME280;43656;57.746;11.780;2023-07-09T12:33:53;102104.09;;;24.12;56.03
57827;BME280;43656;57.746;11.780;2023-07-09T12:36:19;102074.00;;;24.01;56.43
57827;BME280;43656;57.746;11.780;2023-07-09T12:39:04;102106.34;;;24.15;58.38
57827;BME280;43656;57.746;11.780;2023-07-09T12:41:43;102114.31;;;24.17;60.03
57827;BME280;43656;57.746;11.780;2023-07-09T12:44:18;102102.56;;;24.00;62.75
57827;BME280;43656;57.746;11.780;2023-07-09T12:46:45;102098.31;;;23.87;65.45
57827;BME280;43656;57.746;11.780;2023-07-09T12:49:36;102106.22;;;24.05;65.77
57827;BME280;43656;57.746;11.780;2023-07-09T12:52:22;102098.00;;;24.10;67.04
57827;BME280;43656;57.746;11.780;2023-07-09T12:55:01;102098.91;;;24.16;67.40
57827;BME280;43656;57.746;11.780;2023-07-09T12:57:28;102108.78;;;24.12;66.93
57827;BME280;43656;57.746;11.780;2023-07-09T12:59:55;102105.72;;;24.08;67.95
57827;BME280;43656;57.746;11.780;2023-07-09T13:02:23;102095.44;;;23.99;68.99
57827;BME280;43656;57.746;11.780;2023-07-09T13:04:50;102105.41;;;24.05;70.19
57827;BME280;43656;57.746;11.780;2023-07-09T13:09:51;102081.81;;;23.65;69.18
57827;BME280;43656;57.746;11.780;2023-07-09T13:12:17;102088.28;;;23.76;71.31
57827;BME280;43656;57.746;11.780;2023-07-09T13:14:52;102092.91;;;23.97;72.63
57827;BME280;43656;57.746;11.780;2023-07-09T13:17:18;102093.66;;;23.87;72.17
57827;BME280;43656;57.746;11.780;2023-07-09T13:19:43;102093.00;;;23.80;72.71
57827;BME280;43656;57.746;11.780;2023-07-09T13:22:13;102088.50;;;23.96;73.07
57827;BME280;43656;57.746;11.780;2023-07-09T13:24:39;102077.56;;;23.74;72.57
57827;BME280;43656;57.746;11.780;2023-07-09T13:27:05;102100.56;;;24.17;73.38
57827;BME280;43656;57.746;11.780;2023-07-09T13:29:33;102090.22;;;24.24;72.96